sensor_id;sensor_type;location;lat;lon;timestamp;pressure;altitude;pressure_sealevel;temperature;humidity
16094;BME280;8151;47.824;12.092;2023-05-18T00:00:09;96802.25;;;10.57;80.58
16094;BME280;8151;47.824;12.092;2023-05-18T00:02:40;96801.56;;;10.55;80.46
16094;BME280;8151;47.824;12.092;2023-05-18T00:05:09;96797.28;;;10.62;80.40
16094;BME280;8151;47.824;12.092;2023-05-18T00:07:37;96790.53;;;10.68;80.36
16094;BME280;8151;47.824;12.092;2023-05-18T00:10:09;96785.75;;;10.71;80.55
16094;BME280;8151;47.824;12.092;2023-05-18T00:12:38;96792.25;;;10.77;79.89
16094;BME280;8151;47.824;12.092;2023-05-18T00:15:07;96783.47;;;10.76;79.71
16094;BME280;8151;47.824;12.092;2023-05-18T00:17:36;96780.97;;;10.75;79.89
16094;BME280;8151;47.824;12.092;2023-05-18T00:20:05;96772.22;;;10.74;79.61
16094;BME280;8151;47.824;12.092;2023-05-18T00:22:36;96779.31;;;10.74;80.17
16094;BME280;8151;47.824;12.092;2023-05-18T00:25:05;96776.19;;;10.70;80.07
16094;BME280;8151;47.824;12.092;2023-05-18T00:27:35;96773.84;;;10.67;80.36
16094;BME280;8151;47.824;12.092;2023-05-18T00:30:04;96780.09;;;10.66;80.10
16094;BME280;8151;47.824;12.092;2023-05-18T00:32:33;96776.63;;;10.66;79.89
16094;BME280;8151;47.824;12.092;2023-05-18T00:35:01;96782.09;;;10.64;80.47
16094;BME280;8151;47.824;12.092;2023-05-18T00:37:33;96781.59;;;10.60;80.66
16094;BME280;8151;47.824;12.092;2023-05-18T00:40:02;96776.75;;;10.56;80.55
16094;BME280;8151;47.824;12.092;2023-05-18T00:42:32;96775.94;;;10.55;80.23
16094;BME280;8151;47.824;12.092;2023-05-18T00:45:03;96775.44;;;10.60;80.72
16094;BME280;8151;47.824;12.092;2023-05-18T00:47:31;96776.78;;;10.64;80.27
16094;BME280;8151;47.824;12.092;2023-05-18T00:50:00;96777.28;;;10.59;80.70
16094;BME280;8151;47.824;12.092;2023-05-18T00:52:28;96781.06;;;10.57;80.75
16094;BME280;8151;47.824;12.092;2023-05-18T00:54:59;96775.13;;;10.55;80.34
16094;BME280;8151;47.824;12.092;2023-05-18T00:57:27;96778.25;;;10.58;80.91
16094;BME280;8151;47.824;12.092;2023-05-18T00:59:55;96773.81;;;10.59;80.64
16094;BME280;8151;47.824;12.092;2023-05-18T01:02:26;96769.84;;;10.63;80.41
16094;BME280;8151;47.824;12.092;2023-05-18T01:04:56;96772.16;;;10.66;80.09
16094;BME280;8151;47.824;12.092;2023-05-18T01:07:26;96774.81;;;10.66;80.46
16094;BME280;8151;47.824;12.092;2023-05-18T01:09:55;96765.22;;;10.65;80.66
16094;BME280;8151;47.824;12.092;2023-05-18T01:12:29;96766.88;;;10.66;80.09
16094;BME280;8151;47.824;12.092;2023-05-18T01:15:03;96758.44;;;10.62;80.22
16094;BME280;8151;47.824;12.092;2023-05-18T01:17:41;96762.56;;;10.57;80.16
16094;BME280;8151;47.824;12.092;2023-05-18T01:20:16;96765.84;;;10.51;80.53
16094;BME280;8151;47.824;12.092;2023-05-18T01:26:09;96768.81;;;10.56;80.46
16094;BME280;8151;47.824;12.092;2023-05-18T01:28:43;96758.56;;;10.53;80.65
16094;BME280;8151;47.824;12.092;2023-05-18T01:31:13;96764.69;;;10.53;80.17
16094;BME280;8151;47.824;12.092;2023-05-18T01:33:42;96769.81;;;10.55;80.27
16094;BME280;8151;47.824;12.092;2023-05-18T01:36:11;96768.00;;;10.55;80.41
16094;BME280;8151;47.824;12.092;2023-05-18T01:38:40;96767.47;;;10.52;80.69
16094;BME280;8151;47.824;12.092;2023-05-18T01:41:17;96767.31;;;10.53;80.30
16094;BME280;8151;47.824;12.092;2023-05-18T01:43:52;96760.53;;;10.51;80.42
16094;BME280;8151;47.824;12.092;2023-05-18T01:46:34;96760.19;;;10.46;80.86
16094;BME280;8151;47.824;12.092;2023-05-18T01:49:09;96763.97;;;10.43;80.85
16094;BME280;8151;47.824;12.092;2023-05-18T01:51:43;96763.50;;;10.48;80.87
16094;BME280;8151;47.824;12.092;2023-05-18T01:54:15;96761.22;;;10.53;80.84
16094;BME280;8151;47.824;12.092;2023-05-18T01:56:46;96764.34;;;10.56;80.62
16094;BME280;8151;47.824;12.092;2023-05-18T01:59:16;96756.25;;;10.58;80.72
16094;BME280;8151;47.824;12.092;2023-05-18T02:01:45;96757.78;;;10.60;80.78
16094;BME280;8151;47.824;12.092;2023-05-18T02:04:13;96760.41;;;10.60;80.28
16094;BME280;8151;47.824;12.092;2023-05-18T02:06:42;96758.22;;;10.56;80.71
16094;BME280;8151;47.824;12.092;2023-05-18T02:09:10;96762.34;;;10.50;81.14
16094;BME280;8151;47.824;12.092;2023-05-18T02:11:39;96758.34;;;10.46;80.95
16094;BME280;8151;47.824;12.092;2023-05-18T02:14:09;96759.16;;;10.47;80.97
16094;BME280;8151;47.824;12.092;2023-05-18T02:16:41;96757.38;;;10.47;81.15
16094;BME280;8151;47.824;12.092;2023-05-18T02:19:13;96759.16;;;10.47;81.40
16094;BME280;8151;47.824;12.092;2023-05-18T02:21:42;96759.66;;;10.42;81.06
16094;BME280;8151;47.824;12.092;2023-05-18T02:24:10;96754.22;;;10.43;81.31
16094;BME280;8151;47.824;12.092;2023-05-18T02:26:39;96749.25;;;10.49;81.59
16094;BME280;8151;47.824;12.092;2023-05-18T02:29:09;96752.44;;;10.52;81.33
16094;BME280;8151;47.824;12.092;2023-05-18T02:31:40;96751.22;;;10.47;81.70
16094;BME280;8151;47.824;12.092;2023-05-18T02:34:08;96737.81;;;10.40;81.88
16094;BME280;8151;47.824;12.092;2023-05-18T02:36:37;96742.59;;;10.36;81.73
16094;BME280;8151;47.824;12.092;2023-05-18T02:39:06;96735.97;;;10.32;81.52
16094;BME280;8151;47.824;12.092;2023-05-18T02:41:35;96732.72;;;10.20;81.67
16094;BME280;8151;47.824;12.092;2023-05-18T02:44:04;96739.09;;;10.10;82.34
16094;BME280;8151;47.824;12.092;2023-05-18T02:46:34;96740.56;;;10.04;82.62
16094;BME280;8151;47.824;12.092;2023-05-18T02:49:03;96738.75;;;10.04;82.43
16094;BME280;8151;47.824;12.092;2023-05-18T02:51:31;96730.97;;;10.03;82.79
16094;BME280;8151;47.824;12.092;2023-05-18T02:54:00;96732.44;;;9.97;82.55
16094;BME280;8151;47.824;12.092;2023-05-18T02:56:28;96722.69;;;9.98;82.70
16094;BME280;8151;47.824;12.092;2023-05-18T02:58:58;96729.25;;;9.94;82.37
16094;BME280;8151;47.824;12.092;2023-05-18T03:01:27;96735.53;;;9.93;82.52
16094;BME280;8151;47.824;12.092;2023-05-18T03:03:57;96728.72;;;9.90;82.52
16094;BME280;8151;47.824;12.092;2023-05-18T03:06:25;96740.44;;;9.88;83.28
16094;BME280;8151;47.824;12.092;2023-05-18T03:08:57;96747.91;;;9.92;83.21
16094;BME280;8151;47.824;12.092;2023-05-18T03:11:25;96741.03;;;9.99;83.03
16094;BME280;8151;47.824;12.092;2023-05-18T03:13:54;96747.66;;;10.03;82.33
16094;BME280;8151;47.824;12.092;2023-05-18T03:16:22;96739.59;;;10.05;82.09
16094;BME280;8151;47.824;12.092;2023-05-18T03:18:54;96735.78;;;10.08;82.99
16094;BME280;8151;47.824;12.092;2023-05-18T03:21:28;96734.47;;;10.12;82.68
16094;BME280;8151;47.824;12.092;2023-05-18T03:23:59;96737.59;;;10.07;82.17
16094;BME280;8151;47.824;12.092;2023-05-18T03:26:28;96736.13;;;10.04;82.80
16094;BME280;8151;47.824;12.092;2023-05-18T03:28:57;96741.56;;;10.03;82.44
16094;BME280;8151;47.824;12.092;2023-05-18T03:31:27;96749.16;;;10.06;82.49
16094;BME280;8151;47.824;12.092;2023-05-18T03:33:55;96747.03;;;10.10;83.09
16094;BME280;8151;47.824;12.092;2023-05-18T03:36:23;96750.88;;;10.15;82.85
16094;BME280;8151;47.824;12.092;2023-05-18T03:38:55;96745.44;;;10.17;82.63
16094;BME280;8151;47.824;12.092;2023-05-18T03:41:24;96752.53;;;10.16;82.86
16094;BME280;8151;47.824;12.092;2023-05-18T03:43:54;96747.94;;;10.18;82.41
16094;BME280;8151;47.824;12.092;2023-05-18T03:46:23;96750.72;;;10.17;82.71
16094;BME280;8151;47.824;12.092;2023-05-18T03:48:53;96752.41;;;10.18;82.26
16094;BME280;8151;47.824;12.092;2023-05-18T03:51:22;96749.41;;;10.21;82.67
16094;BME280;8151;47.824;12.092;2023-05-18T03:53:50;96754.03;;;10.19;82.76
16094;BME280;8151;47.824;12.092;2023-05-18T03:56:20;96747.03;;;10.10;82.89
16094;BME280;8151;47.824;12.092;2023-05-18T03:58:49;96752.75;;;9.97;82.68
16094;BME280;8151;47.824;12.092;2023-05-18T04:01:17;96754.50;;;9.88;83.93
16094;BME280;8151;47.824;12.092;2023-05-18T04:03:49;96745.88;;;9.86;83.65
16094;BME280;8151;47.824;12.092;2023-05-18T04:06:22;96747.84;;;9.84;83.18
16094;BME280;8151;47.824;12.092;2023-05-18T04:08:53;96750.34;;;9.85;83.88
16094;BME280;8151;47.824;12.092;2023-05-18T04:11:23;96749.34;;;9.86;83.36
16094;BME280;8151;47.824;12.092;2023-05-18T04:13:53;96748.19;;;9.81;83.73
16094;BME280;8151;47.824;12.092;2023-05-18T04:16:24;96747.94;;;9.74;83.94
16094;BME280;8151;47.824;12.092;2023-05-18T04:18:55;96747.75;;;9.68;83.76
16094;BME280;8151;47.824;12.092;2023-05-18T04:21:23;96751.69;;;9.63;83.96
16094;BME280;8151;47.824;12.092;2023-05-18T04:23:52;96757.31;;;9.69;84.26
16094;BME280;8151;47.824;12.092;2023-05-18T04:26:23;96763.81;;;9.74;83.59
16094;BME280;8151;47.824;12.092;2023-05-18T04:28:51;96754.59;;;9.78;83.49
16094;BME280;8151;47.824;12.092;2023-05-18T04:31:26;96760.41;;;9.82;83.60
16094;BME280;8151;47.824;12.092;2023-05-18T04:33:55;96763.72;;;9.84;83.67
16094;BME280;8151;47.824;12.092;2023-05-18T04:36:26;96757.59;;;9.83;83.14
16094;BME280;8151;47.824;12.092;2023-05-18T04:38:57;96759.25;;;9.84;83.48
16094;BME280;8151;47.824;12.092;2023-05-18T04:41:28;96751.84;;;9.88;83.36
16094;BME280;8151;47.824;12.092;2023-05-18T04:44:00;96751.84;;;9.88;83.84
16094;BME280;8151;47.824;12.092;2023-05-18T04:46:29;96757.97;;;9.89;83.46
16094;BME280;8151;47.824;12.092;2023-05-18T04:48:59;96758.81;;;9.89;83.88
16094;BME280;8151;47.824;12.092;2023-05-18T04:51:28;96757.38;;;9.95;83.40
16094;BME280;8151;47.824;12.092;2023-05-18T04:53:56;96758.56;;;10.00;83.44
16094;BME280;8151;47.824;12.092;2023-05-18T04:56:25;96763.84;;;10.00;83.27
16094;BME280;8151;47.824;12.092;2023-05-18T04:58:56;96759.38;;;10.01;83.37
16094;BME280;8151;47.824;12.092;2023-05-18T05:01:27;96761.88;;;10.02;83.59
16094;BME280;8151;47.824;12.092;2023-05-18T05:03:55;96754.97;;;10.10;83.08
16094;BME280;8151;47.824;12.092;2023-05-18T05:06:27;96759.59;;;10.08;83.11
16094;BME280;8151;47.824;12.092;2023-05-18T05:08:55;96754.81;;;10.11;83.57
16094;BME280;8151;47.824;12.092;2023-05-18T05:11:24;96762.22;;;10.08;83.01
16094;BME280;8151;47.824;12.092;2023-05-18T05:13:55;96758.91;;;10.05;83.59
16094;BME280;8151;47.824;12.092;2023-05-18T05:16:24;96755.97;;;10.09;83.56
16094;BME280;8151;47.824;12.092;2023-05-18T05:18:55;96755.34;;;10.15;83.01
16094;BME280;8151;47.824;12.092;2023-05-18T05:21:24;96758.34;;;10.20;82.98
16094;BME280;8151;47.824;12.092;2023-05-18T05:23:53;96761.03;;;10.28;82.95
16094;BME280;8151;47.824;12.092;2023-05-18T05:26:21;96763.09;;;10.34;82.97
16094;BME280;8151;47.824;12.092;2023-05-18T05:28:50;96759.81;;;10.40;82.99
16094;BME280;8151;47.824;12.092;2023-05-18T05:31:18;96758.03;;;10.49;83.00
16094;BME280;8151;47.824;12.092;2023-05-18T05:33:48;96760.06;;;10.55;82.76
16094;BME280;8151;47.824;12.092;2023-05-18T05:36:16;96751.47;;;10.61;82.21
16094;BME280;8151;47.824;12.092;2023-05-18T05:38:45;96754.63;;;10.65;82.07
16094;BME280;8151;47.824;12.092;2023-05-18T05:41:13;96748.19;;;10.68;82.47
16094;BME280;8151;47.824;12.092;2023-05-18T05:43:42;96748.72;;;10.71;82.34
16094;BME280;8151;47.824;12.092;2023-05-18T05:46:10;96742.94;;;10.76;82.00
16094;BME280;8151;47.824;12.092;2023-05-18T05:48:39;96744.09;;;10.81;82.28
16094;BME280;8151;47.824;12.092;2023-05-18T05:51:09;96747.09;;;10.87;81.82
16094;BME280;8151;47.824;12.092;2023-05-18T05:53:38;96743.81;;;10.93;82.03
16094;BME280;8151;47.824;12.092;2023-05-18T05:56:07;96748.97;;;11.02;81.71
16094;BME280;8151;47.824;12.092;2023-05-18T05:58:35;96749.69;;;11.13;81.54
16094;BME280;8151;47.824;12.092;2023-05-18T06:01:04;96753.16;;;11.21;81.80
16094;BME280;8151;47.824;12.092;2023-05-18T06:03:32;96743.41;;;11.30;81.47
16094;BME280;8151;47.824;12.092;2023-05-18T06:06:02;96752.69;;;11.34;81.05
16094;BME280;8151;47.824;12.092;2023-05-18T06:08:32;96743.44;;;11.38;80.85
16094;BME280;8151;47.824;12.092;2023-05-18T06:11:00;96757.34;;;11.40;80.62
16094;BME280;8151;47.824;12.092;2023-05-18T06:13:29;96760.81;;;11.41;80.67
16094;BME280;8151;47.824;12.092;2023-05-18T06:15:58;96762.28;;;11.43;80.39
16094;BME280;8151;47.824;12.092;2023-05-18T06:18:28;96749.72;;;11.46;79.90
16094;BME280;8151;47.824;12.092;2023-05-18T06:20:56;96770.91;;;11.46;79.63
16094;BME280;8151;47.824;12.092;2023-05-18T06:23:25;96756.00;;;11.45;79.19
16094;BME280;8151;47.824;12.092;2023-05-18T06:25:57;96761.47;;;11.43;79.07
16094;BME280;8151;47.824;12.092;2023-05-18T06:28:25;96759.63;;;11.43;78.90
16094;BME280;8151;47.824;12.092;2023-05-18T06:30:55;96750.56;;;11.46;78.46
16094;BME280;8151;47.824;12.092;2023-05-18T06:33:24;96758.81;;;11.51;78.30
16094;BME280;8151;47.824;12.092;2023-05-18T06:35:52;96750.41;;;11.56;78.15
16094;BME280;8151;47.824;12.092;2023-05-18T06:38:21;96761.16;;;11.62;77.60
16094;BME280;8151;47.824;12.092;2023-05-18T06:40:49;96760.69;;;11.67;77.79
16094;BME280;8151;47.824;12.092;2023-05-18T06:43:19;96754.19;;;11.78;77.35
16094;BME280;8151;47.824;12.092;2023-05-18T06:45:48;96749.06;;;11.85;77.28
16094;BME280;8151;47.824;12.092;2023-05-18T06:48:16;96746.91;;;11.88;77.04
16094;BME280;8151;47.824;12.092;2023-05-18T06:50:44;96746.59;;;11.91;76.80
16094;BME280;8151;47.824;12.092;2023-05-18T06:53:13;96739.97;;;11.95;76.20
16094;BME280;8151;47.824;12.092;2023-05-18T06:55:41;96744.59;;;12.01;76.04
16094;BME280;8151;47.824;12.092;2023-05-18T06:58:10;96743.59;;;12.11;75.66
16094;BME280;8151;47.824;12.092;2023-05-18T07:00:40;96738.09;;;12.20;75.17
16094;BME280;8151;47.824;12.092;2023-05-18T07:03:08;96739.09;;;12.28;75.21
16094;BME280;8151;47.824;12.092;2023-05-18T07:05:37;96739.41;;;12.33;74.96
16094;BME280;8151;47.824;12.092;2023-05-18T07:08:05;96741.56;;;12.37;74.82
16094;BME280;8151;47.824;12.092;2023-05-18T07:10:35;96740.06;;;12.43;74.42
16094;BME280;8151;47.824;12.092;2023-05-18T07:13:04;96748.31;;;12.48;74.49
16094;BME280;8151;47.824;12.092;2023-05-18T07:15:32;96742.50;;;12.53;74.10
16094;BME280;8151;47.824;12.092;2023-05-18T07:18:03;96744.81;;;12.56;74.09
16094;BME280;8151;47.824;12.092;2023-05-18T07:20:31;96743.00;;;12.56;74.03
16094;BME280;8151;47.824;12.092;2023-05-18T07:23:00;96750.75;;;12.58;73.87
16094;BME280;8151;47.824;12.092;2023-05-18T07:25:29;96744.97;;;12.63;73.61
16094;BME280;8151;47.824;12.092;2023-05-18T07:28:04;96756.06;;;12.66;73.51
16094;BME280;8151;47.824;12.092;2023-05-18T07:30:32;96761.19;;;12.68;73.24
16094;BME280;8151;47.824;12.092;2023-05-18T07:33:02;96748.41;;;12.71;73.37
16094;BME280;8151;47.824;12.092;2023-05-18T07:35:31;96746.88;;;12.77;73.09
16094;BME280;8151;47.824;12.092;2023-05-18T07:37:59;96761.13;;;12.84;72.84
16094;BME280;8151;47.824;12.092;2023-05-18T07:40:29;96758.47;;;12.84;72.94
16094;BME280;8151;47.824;12.092;2023-05-18T07:42:58;96757.94;;;12.89;72.91
16094;BME280;8151;47.824;12.092;2023-05-18T07:45:26;96759.09;;;12.94;72.68
16094;BME280;8151;47.824;12.092;2023-05-18T07:47:56;96759.25;;;13.01;72.26
16094;BME280;8151;47.824;12.092;2023-05-18T07:50:26;96753.06;;;13.09;72.28
16094;BME280;8151;47.824;12.092;2023-05-18T07:52:57;96757.66;;;13.15;71.92
16094;BME280;8151;47.824;12.092;2023-05-18T07:55:25;96754.31;;;13.21;71.87
16094;BME280;8151;47.824;12.092;2023-05-18T07:57:54;96757.44;;;13.25;71.49
16094;BME280;8151;47.824;12.092;2023-05-18T08:00:30;96762.38;;;13.28;71.33
16094;BME280;8151;47.824;12.092;2023-05-18T08:02:58;96760.06;;;13.33;71.07
16094;BME280;8151;47.824;12.092;2023-05-18T08:05:30;96766.34;;;13.40;70.81
16094;BME280;8151;47.824;12.092;2023-05-18T08:08:01;96764.63;;;13.47;70.77
16094;BME280;8151;47.824;12.092;2023-05-18T08:10:33;96747.34;;;13.51;70.57
16094;BME280;8151;47.824;12.092;2023-05-18T08:13:01;96751.09;;;13.57;70.47
16094;BME280;8151;47.824;12.092;2023-05-18T08:15:30;96756.88;;;13.61;70.08
16094;BME280;8151;47.824;12.092;2023-05-18T08:17:59;96758.19;;;13.65;69.89
16094;BME280;8151;47.824;12.092;2023-05-18T08:20:28;96757.84;;;13.68;69.88
16094;BME280;8151;47.824;12.092;2023-05-18T08:22:59;96764.28;;;13.73;69.67
16094;BME280;8151;47.824;12.092;2023-05-18T08:25:29;96752.94;;;13.79;69.56
16094;BME280;8151;47.824;12.092;2023-05-18T08:27:58;96755.50;;;13.88;69.82
16094;BME280;8151;47.824;12.092;2023-05-18T08:30:26;96757.91;;;13.97;69.61
16094;BME280;8151;47.824;12.092;2023-05-18T08:32:56;96759.59;;;13.98;69.47
16094;BME280;8151;47.824;12.092;2023-05-18T08:35:24;96763.63;;;13.94;69.29
16094;BME280;8151;47.824;12.092;2023-05-18T08:37:53;96757.75;;;13.99;69.04
16094;BME280;8151;47.824;12.092;2023-05-18T08:40:25;96752.00;;;14.10;68.94
16094;BME280;8151;47.824;12.092;2023-05-18T08:43:02;96725.94;;;14.21;68.57
16094;BME280;8151;47.824;12.092;2023-05-18T08:45:46;96753.50;;;14.28;68.17
16094;BME280;8151;47.824;12.092;2023-05-18T08:48:15;96757.25;;;14.33;68.19
16094;BME280;8151;47.824;12.092;2023-05-18T08:50:45;96740.28;;;14.34;67.71
16094;BME280;8151;47.824;12.092;2023-05-18T08:53:15;96747.56;;;14.41;67.83
16094;BME280;8151;47.824;12.092;2023-05-18T08:55:50;96750.84;;;14.43;67.45
16094;BME280;8151;47.824;12.092;2023-05-18T08:58:25;96746.00;;;14.46;67.47
16094;BME280;8151;47.824;12.092;2023-05-18T09:00:55;96753.06;;;14.54;66.88
16094;BME280;8151;47.824;12.092;2023-05-18T09:03:24;96747.38;;;14.57;66.96
16094;BME280;8151;47.824;12.092;2023-05-18T09:05:54;96757.47;;;14.62;66.63
16094;BME280;8151;47.824;12.092;2023-05-18T09:08:23;96752.72;;;14.72;66.15
16094;BME280;8151;47.824;12.092;2023-05-18T09:10:55;96760.50;;;14.88;65.64
16094;BME280;8151;47.824;12.092;2023-05-18T09:13:24;96754.97;;;15.05;65.66
16094;BME280;8151;47.824;12.092;2023-05-18T09:15:54;96762.91;;;15.20;65.00
16094;BME280;8151;47.824;12.092;2023-05-18T09:18:22;96748.47;;;15.29;64.51
16094;BME280;8151;47.824;12.092;2023-05-18T09:20:54;96758.78;;;15.32;64.20
16094;BME280;8151;47.824;12.092;2023-05-18T09:23:23;96749.25;;;15.44;64.15
16094;BME280;8151;47.824;12.092;2023-05-18T09:25:53;96750.22;;;15.58;63.30
16094;BME280;8151;47.824;12.092;2023-05-18T09:28:26;96753.06;;;15.56;63.00
16094;BME280;8151;47.824;12.092;2023-05-18T09:30:55;96759.16;;;15.50;63.35
16094;BME280;8151;47.824;12.092;2023-05-18T09:33:23;96744.81;;;15.51;63.11
16094;BME280;8151;47.824;12.092;2023-05-18T09:35:52;96744.44;;;15.54;62.83
16094;BME280;8151;47.824;12.092;2023-05-18T09:38:21;96760.06;;;15.58;62.38
16094;BME280;8151;47.824;12.092;2023-05-18T09:40:50;96749.84;;;15.61;62.27
16094;BME280;8151;47.824;12.092;2023-05-18T09:43:20;96735.06;;;15.59;62.12
16094;BME280;8151;47.824;12.092;2023-05-18T09:45:48;96742.66;;;15.62;62.01
16094;BME280;8151;47.824;12.092;2023-05-18T09:48:17;96747.41;;;15.66;61.66
16094;BME280;8151;47.824;12.092;2023-05-18T09:50:48;96737.81;;;15.72;61.30
16094;BME280;8151;47.824;12.092;2023-05-18T09:53:17;96742.19;;;15.73;61.32
16094;BME280;8151;47.824;12.092;2023-05-18T09:55:47;96729.47;;;15.75;60.57
16094;BME280;8151;47.824;12.092;2023-05-18T09:58:16;96739.16;;;15.76;60.43
16094;BME280;8151;47.824;12.092;2023-05-18T10:00:47;96722.72;;;15.79;59.92
16094;BME280;8151;47.824;12.092;2023-05-18T10:03:20;96734.03;;;15.81;60.15
16094;BME280;8151;47.824;12.092;2023-05-18T10:05:49;96741.09;;;15.89;59.91
16094;BME280;8151;47.824;12.092;2023-05-18T10:08:18;96730.66;;;15.94;59.75
16094;BME280;8151;47.824;12.092;2023-05-18T10:10:48;96718.63;;;16.05;59.34
16094;BME280;8151;47.824;12.092;2023-05-18T10:13:17;96735.16;;;16.15;59.48
16094;BME280;8151;47.824;12.092;2023-05-18T10:15:49;96734.75;;;16.18;59.03
16094;BME280;8151;47.824;12.092;2023-05-18T10:18:21;96736.44;;;16.26;59.17
16094;BME280;8151;47.824;12.092;2023-05-18T10:20:52;96733.66;;;16.41;58.84
16094;BME280;8151;47.824;12.092;2023-05-18T10:23:22;96739.09;;;16.54;58.93
16094;BME280;8151;47.824;12.092;2023-05-18T10:25:52;96741.44;;;16.70;58.36
16094;BME280;8151;47.824;12.092;2023-05-18T10:28:22;96745.25;;;16.89;58.07
16094;BME280;8151;47.824;12.092;2023-05-18T10:30:58;96734.81;;;17.01;57.71
16094;BME280;8151;47.824;12.092;2023-05-18T10:33:27;96743.47;;;17.03;57.77
16094;BME280;8151;47.824;12.092;2023-05-18T10:36:01;96738.53;;;17.00;57.50
16094;BME280;8151;47.824;12.092;2023-05-18T10:38:32;96745.28;;;16.96;57.70
16094;BME280;8151;47.824;12.092;2023-05-18T10:41:02;96738.91;;;16.97;57.69
16094;BME280;8151;47.824;12.092;2023-05-18T10:43:33;96719.16;;;16.98;57.47
16094;BME280;8151;47.824;12.092;2023-05-18T10:46:05;96727.22;;;17.05;57.24
16094;BME280;8151;47.824;12.092;2023-05-18T10:48:39;96737.56;;;17.15;56.90
16094;BME280;8151;47.824;12.092;2023-05-18T10:51:08;96733.69;;;17.30;56.54
16094;BME280;8151;47.824;12.092;2023-05-18T10:53:37;96733.72;;;17.44;56.22
16094;BME280;8151;47.824;12.092;2023-05-18T10:56:09;96722.63;;;17.47;56.11
16094;BME280;8151;47.824;12.092;2023-05-18T10:58:38;96734.34;;;17.39;56.27
16094;BME280;8151;47.824;12.092;2023-05-18T11:01:09;96733.69;;;17.30;56.16
16094;BME280;8151;47.824;12.092;2023-05-18T11:03:39;96737.38;;;17.23;56.31
16094;BME280;8151;47.824;12.092;2023-05-18T11:06:11;96734.72;;;17.29;56.07
16094;BME280;8151;47.824;12.092;2023-05-18T11:08:42;96731.03;;;17.37;55.81
16094;BME280;8151;47.824;12.092;2023-05-18T11:11:11;96723.41;;;17.34;55.66
16094;BME280;8151;47.824;12.092;2023-05-18T11:13:44;96725.66;;;17.24;55.77
16094;BME280;8151;47.824;12.092;2023-05-18T11:16:17;96726.84;;;17.15;55.69
16094;BME280;8151;47.824;12.092;2023-05-18T11:18:46;96731.97;;;17.09;55.59
16094;BME280;8151;47.824;12.092;2023-05-18T11:21:20;96722.94;;;17.10;55.38
16094;BME280;8151;47.824;12.092;2023-05-18T11:24:16;96727.25;;;17.11;54.87
16094;BME280;8151;47.824;12.092;2023-05-18T11:26:49;96727.44;;;17.03;55.69
16094;BME280;8151;47.824;12.092;2023-05-18T11:29:20;96719.34;;;16.90;55.89
16094;BME280;8151;47.824;12.092;2023-05-18T11:31:51;96721.94;;;16.77;56.10
16094;BME280;8151;47.824;12.092;2023-05-18T11:34:38;96719.63;;;16.67;55.67
16094;BME280;8151;47.824;12.092;2023-05-18T11:37:08;96722.72;;;16.64;56.38
16094;BME280;8151;47.824;12.092;2023-05-18T11:39:37;96718.56;;;16.61;56.33
16094;BME280;8151;47.824;12.092;2023-05-18T11:42:21;96719.59;;;16.60;56.11
16094;BME280;8151;47.824;12.092;2023-05-18T11:44:51;96718.97;;;16.58;56.09
16094;BME280;8151;47.824;12.092;2023-05-18T11:47:28;96728.00;;;16.57;56.03
16094;BME280;8151;47.824;12.092;2023-05-18T11:49:59;96741.34;;;16.57;56.24
16094;BME280;8151;47.824;12.092;2023-05-18T11:52:28;96726.19;;;16.58;55.99
16094;BME280;8151;47.824;12.092;2023-05-18T11:54:58;96718.78;;;16.60;55.84
16094;BME280;8151;47.824;12.092;2023-05-18T11:57:37;96718.81;;;16.66;55.58
16094;BME280;8151;47.824;12.092;2023-05-18T12:00:08;96723.34;;;16.66;55.84
16094;BME280;8151;47.824;12.092;2023-05-18T12:02:42;96726.38;;;16.63;55.72
16094;BME280;8151;47.824;12.092;2023-05-18T12:05:11;96732.78;;;16.62;55.82
16094;BME280;8151;47.824;12.092;2023-05-18T12:07:40;96722.28;;;16.60;55.99
16094;BME280;8151;47.824;12.092;2023-05-18T12:10:12;96718.56;;;16.61;55.97
16094;BME280;8151;47.824;12.092;2023-05-18T12:12:42;96718.97;;;16.58;56.21
16094;BME280;8151;47.824;12.092;2023-05-18T12:15:11;96726.38;;;16.56;56.05
16094;BME280;8151;47.824;12.092;2023-05-18T12:17:57;96716.69;;;16.55;56.03
16094;BME280;8151;47.824;12.092;2023-05-18T12:20:26;96724.69;;;16.55;55.99
16094;BME280;8151;47.824;12.092;2023-05-18T12:22:56;96717.09;;;16.52;56.10
16094;BME280;8151;47.824;12.092;2023-05-18T12:25:25;96721.22;;;16.54;56.00
16094;BME280;8151;47.824;12.092;2023-05-18T12:27:54;96726.56;;;16.61;55.93
16094;BME280;8151;47.824;12.092;2023-05-18T12:30:24;96719.88;;;16.72;55.75
16094;BME280;8151;47.824;12.092;2023-05-18T12:33:02;96723.44;;;16.86;55.45
16094;BME280;8151;47.824;12.092;2023-05-18T12:35:33;96722.03;;;16.90;55.47
16094;BME280;8151;47.824;12.092;2023-05-18T12:38:02;96726.56;;;16.96;55.26
16094;BME280;8151;47.824;12.092;2023-05-18T12:40:34;96713.00;;;16.98;55.18
16094;BME280;8151;47.824;12.092;2023-05-18T12:43:11;96725.56;;;16.97;55.08
16094;BME280;8151;47.824;12.092;2023-05-18T12:45:39;96722.47;;;16.93;55.25
16094;BME280;8151;47.824;12.092;2023-05-18T12:48:13;96712.81;;;16.92;55.21
16094;BME280;8151;47.824;12.092;2023-05-18T12:50:45;96721.44;;;16.95;54.87
16094;BME280;8151;47.824;12.092;2023-05-18T12:53:14;96721.22;;;16.96;54.86
16094;BME280;8151;47.824;12.092;2023-05-18T12:55:44;96717.78;;;17.02;54.65
16094;BME280;8151;47.824;12.092;2023-05-18T12:58:15;96712.63;;;17.07;54.53
16094;BME280;8151;47.824;12.092;2023-05-18T13:00:46;96708.53;;;17.11;54.46
16094;BME280;8151;47.824;12.092;2023-05-18T13:03:17;96707.50;;;17.12;54.67
16094;BME280;8151;47.824;12.092;2023-05-18T13:06:01;96718.22;;;17.12;54.21
16094;BME280;8151;47.824;12.092;2023-05-18T13:08:30;96718.41;;;17.11;54.68
16094;BME280;8151;47.824;12.092;2023-05-18T13:11:01;96723.75;;;17.11;54.89
16094;BME280;8151;47.824;12.092;2023-05-18T13:13:58;96716.53;;;17.11;54.23
16094;BME280;8151;47.824;12.092;2023-05-18T13:16:27;96721.75;;;17.20;54.57
16094;BME280;8151;47.824;12.092;2023-05-18T13:18:59;96714.53;;;17.20;54.37